Terminal Aerodrome Forecast
Issued by NWS King Salmon, AK

Home | Current Version | Previous Version | Text Only | Print | Product List | Glossary On
Versions: 1 2 3 4 5 6 7 8 9 10 11 12 13 14 15
000
FTAK31 PANC 221724
TAFAKN
TAF
PAKN 221724Z 2218/2318 18006KT 1/2SM FG OVC030
      TEMPO 2218/2220 6SM BR FEW003 BKN035
     FM230000 20010KT P6SM VCSH SCT025 BKN050
     FM230900 VRB06KT P6SM SCT040 BKN070=

USA.gov is the U.S. government's official web portal to all federal, state and local government web resources and services.